sensor_id;sensor_type;location;lat;lon;timestamp;P1;durP1;ratioP1;P2;durP2;ratioP2
80247;SDS011;69560;52.206;21.018;2023-06-10T00:01:03;13.80;;;10.80;;
80247;SDS011;69560;52.206;21.018;2023-06-10T00:03:52;13.80;;;11.70;;
80247;SDS011;69560;52.206;21.018;2023-06-10T00:06:19;12.30;;;11.00;;
80247;SDS011;69560;52.206;21.018;2023-06-10T00:08:47;14.50;;;11.30;;
80247;SDS011;69560;52.206;21.018;2023-06-10T00:11:14;13.20;;;11.00;;
80247;SDS011;69560;52.206;21.018;2023-06-10T00:13:41;12.40;;;11.00;;
80247;SDS011;69560;52.206;21.018;2023-06-10T00:16:08;12.40;;;10.80;;
80247;SDS011;69560;52.206;21.018;2023-06-10T00:18:36;14.30;;;10.40;;
80247;SDS011;69560;52.206;21.018;2023-06-10T00:21:05;49.80;;;44.70;;
80247;SDS011;69560;52.206;21.018;2023-06-10T00:23:36;42.70;;;38.10;;
80247;SDS011;69560;52.206;21.018;2023-06-10T00:26:04;21.20;;;16.70;;
80247;SDS011;69560;52.206;21.018;2023-06-10T00:28:32;16.40;;;11.10;;
80247;SDS011;69560;52.206;21.018;2023-06-10T00:30:59;12.50;;;9.60;;
80247;SDS011;69560;52.206;21.018;2023-06-10T00:33:26;11.00;;;9.20;;
80247;SDS011;69560;52.206;21.018;2023-06-10T00:35:56;10.70;;;8.80;;
80247;SDS011;69560;52.206;21.018;2023-06-10T00:38:22;11.20;;;8.50;;
80247;SDS011;69560;52.206;21.018;2023-06-10T00:40:50;9.10;;;8.20;;
80247;SDS011;69560;52.206;21.018;2023-06-10T00:43:16;10.20;;;8.00;;
80247;SDS011;69560;52.206;21.018;2023-06-10T00:45:43;8.10;;;7.40;;
80247;SDS011;69560;52.206;21.018;2023-06-10T00:48:10;10.00;;;7.80;;
80247;SDS011;69560;52.206;21.018;2023-06-10T00:50:37;9.40;;;7.90;;
80247;SDS011;69560;52.206;21.018;2023-06-10T00:53:08;9.40;;;7.40;;
80247;SDS011;69560;52.206;21.018;2023-06-10T00:55:37;9.60;;;7.30;;
80247;SDS011;69560;52.206;21.018;2023-06-10T00:58:05;8.00;;;6.90;;
80247;SDS011;69560;52.206;21.018;2023-06-10T01:00:31;8.10;;;6.80;;
80247;SDS011;69560;52.206;21.018;2023-06-10T01:03:02;9.50;;;6.30;;
80247;SDS011;69560;52.206;21.018;2023-06-10T01:05:34;8.30;;;6.80;;
80247;SDS011;69560;52.206;21.018;2023-06-10T01:10:57;9.60;;;6.80;;
80247;SDS011;69560;52.206;21.018;2023-06-10T01:13:27;13.20;;;6.80;;
80247;SDS011;69560;52.206;21.018;2023-06-10T01:15:55;7.90;;;6.50;;
80247;SDS011;69560;52.206;21.018;2023-06-10T01:18:23;8.10;;;6.20;;
80247;SDS011;69560;52.206;21.018;2023-06-10T01:20:57;11.00;;;6.80;;
80247;SDS011;69560;52.206;21.018;2023-06-10T01:23:24;8.30;;;6.20;;
80247;SDS011;69560;52.206;21.018;2023-06-10T01:25:56;9.50;;;6.40;;
80247;SDS011;69560;52.206;21.018;2023-06-10T01:28:38;10.80;;;6.40;;
80247;SDS011;69560;52.206;21.018;2023-06-10T01:34:23;10.50;;;5.90;;
80247;SDS011;69560;52.206;21.018;2023-06-10T01:36:56;11.00;;;6.50;;
80247;SDS011;69560;52.206;21.018;2023-06-10T01:39:24;9.40;;;6.40;;
80247;SDS011;69560;52.206;21.018;2023-06-10T01:41:52;8.80;;;5.90;;
80247;SDS011;69560;52.206;21.018;2023-06-10T01:44:21;9.20;;;6.00;;
80247;SDS011;69560;52.206;21.018;2023-06-10T01:46:49;12.40;;;6.50;;
80247;SDS011;69560;52.206;21.018;2023-06-10T01:49:16;9.00;;;6.00;;
80247;SDS011;69560;52.206;21.018;2023-06-10T01:51:44;9.30;;;6.00;;
80247;SDS011;69560;52.206;21.018;2023-06-10T01:54:11;10.00;;;5.80;;
80247;SDS011;69560;52.206;21.018;2023-06-10T01:56:38;9.10;;;5.90;;
80247;SDS011;69560;52.206;21.018;2023-06-10T01:59:10;9.50;;;6.10;;
80247;SDS011;69560;52.206;21.018;2023-06-10T02:01:37;7.50;;;5.80;;
80247;SDS011;69560;52.206;21.018;2023-06-10T02:04:04;9.10;;;5.60;;
80247;SDS011;69560;52.206;21.018;2023-06-10T02:06:31;9.00;;;5.60;;
80247;SDS011;69560;52.206;21.018;2023-06-10T02:09:03;7.40;;;6.00;;
80247;SDS011;69560;52.206;21.018;2023-06-10T02:11:30;7.30;;;6.00;;
80247;SDS011;69560;52.206;21.018;2023-06-10T02:13:59;8.50;;;5.40;;
80247;SDS011;69560;52.206;21.018;2023-06-10T02:16:28;8.60;;;5.60;;
80247;SDS011;69560;52.206;21.018;2023-06-10T02:18:55;6.70;;;5.30;;
80247;SDS011;69560;52.206;21.018;2023-06-10T02:21:22;8.80;;;5.20;;
80247;SDS011;69560;52.206;21.018;2023-06-10T02:23:49;12.30;;;6.50;;
80247;SDS011;69560;52.206;21.018;2023-06-10T02:26:15;11.80;;;5.10;;
80247;SDS011;69560;52.206;21.018;2023-06-10T02:28:43;8.80;;;5.80;;
80247;SDS011;69560;52.206;21.018;2023-06-10T02:31:10;6.20;;;5.30;;
80247;SDS011;69560;52.206;21.018;2023-06-10T02:33:51;8.10;;;5.30;;
80247;SDS011;69560;52.206;21.018;2023-06-10T02:36:21;9.20;;;5.90;;
80247;SDS011;69560;52.206;21.018;2023-06-10T02:38:52;7.90;;;5.40;;
80247;SDS011;69560;52.206;21.018;2023-06-10T02:41:22;7.60;;;5.40;;
80247;SDS011;69560;52.206;21.018;2023-06-10T02:43:51;11.20;;;5.40;;
80247;SDS011;69560;52.206;21.018;2023-06-10T02:46:18;10.80;;;5.20;;
80247;SDS011;69560;52.206;21.018;2023-06-10T02:48:45;10.20;;;5.40;;
80247;SDS011;69560;52.206;21.018;2023-06-10T02:51:18;8.00;;;5.40;;
80247;SDS011;69560;52.206;21.018;2023-06-10T02:53:46;9.60;;;5.40;;
80247;SDS011;69560;52.206;21.018;2023-06-10T02:56:16;9.60;;;5.40;;
80247;SDS011;69560;52.206;21.018;2023-06-10T02:58:44;15.00;;;6.10;;
80247;SDS011;69560;52.206;21.018;2023-06-10T03:01:14;5.60;;;4.80;;
80247;SDS011;69560;52.206;21.018;2023-06-10T03:03:41;8.30;;;5.10;;
80247;SDS011;69560;52.206;21.018;2023-06-10T03:06:13;7.70;;;5.50;;
80247;SDS011;69560;52.206;21.018;2023-06-10T03:08:42;13.10;;;5.50;;
80247;SDS011;69560;52.206;21.018;2023-06-10T03:11:10;10.00;;;5.50;;
80247;SDS011;69560;52.206;21.018;2023-06-10T03:13:40;8.60;;;5.60;;
80247;SDS011;69560;52.206;21.018;2023-06-10T03:16:08;9.80;;;5.20;;
80247;SDS011;69560;52.206;21.018;2023-06-10T03:18:39;9.30;;;5.40;;
80247;SDS011;69560;52.206;21.018;2023-06-10T03:21:10;6.90;;;4.90;;
80247;SDS011;69560;52.206;21.018;2023-06-10T03:23:37;9.80;;;5.10;;
80247;SDS011;69560;52.206;21.018;2023-06-10T03:26:04;15.30;;;5.20;;
80247;SDS011;69560;52.206;21.018;2023-06-10T03:28:39;10.20;;;5.70;;
80247;SDS011;69560;52.206;21.018;2023-06-10T03:31:10;9.40;;;5.30;;
80247;SDS011;69560;52.206;21.018;2023-06-10T03:33:41;6.40;;;5.50;;
80247;SDS011;69560;52.206;21.018;2023-06-10T03:36:08;8.40;;;5.70;;
80247;SDS011;69560;52.206;21.018;2023-06-10T03:38:39;7.60;;;5.40;;
80247;SDS011;69560;52.206;21.018;2023-06-10T03:41:06;8.80;;;5.50;;
80247;SDS011;69560;52.206;21.018;2023-06-10T03:43:32;7.20;;;4.90;;
80247;SDS011;69560;52.206;21.018;2023-06-10T03:46:05;8.10;;;4.60;;
80247;SDS011;69560;52.206;21.018;2023-06-10T03:48:32;7.90;;;5.50;;
80247;SDS011;69560;52.206;21.018;2023-06-10T03:50:59;8.70;;;5.10;;
80247;SDS011;69560;52.206;21.018;2023-06-10T03:53:25;9.30;;;5.30;;
80247;SDS011;69560;52.206;21.018;2023-06-10T03:55:52;8.50;;;5.10;;
80247;SDS011;69560;52.206;21.018;2023-06-10T03:58:19;10.10;;;5.50;;
80247;SDS011;69560;52.206;21.018;2023-06-10T04:00:46;7.70;;;5.20;;
80247;SDS011;69560;52.206;21.018;2023-06-10T04:03:15;11.10;;;5.60;;
80247;SDS011;69560;52.206;21.018;2023-06-10T04:05:42;10.90;;;5.50;;
80247;SDS011;69560;52.206;21.018;2023-06-10T04:08:14;10.80;;;5.20;;
80247;SDS011;69560;52.206;21.018;2023-06-10T04:10:41;11.80;;;5.50;;
80247;SDS011;69560;52.206;21.018;2023-06-10T04:13:12;12.30;;;4.90;;
80247;SDS011;69560;52.206;21.018;2023-06-10T04:15:47;10.80;;;5.00;;
80247;SDS011;69560;52.206;21.018;2023-06-10T04:18:14;7.10;;;5.50;;
80247;SDS011;69560;52.206;21.018;2023-06-10T04:20:42;7.70;;;4.80;;
80247;SDS011;69560;52.206;21.018;2023-06-10T04:23:13;12.30;;;5.60;;
80247;SDS011;69560;52.206;21.018;2023-06-10T04:25:40;9.50;;;5.30;;
80247;SDS011;69560;52.206;21.018;2023-06-10T04:28:07;14.90;;;5.70;;
80247;SDS011;69560;52.206;21.018;2023-06-10T04:30:45;11.10;;;5.00;;
80247;SDS011;69560;52.206;21.018;2023-06-10T04:33:12;8.10;;;4.80;;
80247;SDS011;69560;52.206;21.018;2023-06-10T04:35:43;9.20;;;5.20;;
80247;SDS011;69560;52.206;21.018;2023-06-10T04:38:14;6.40;;;4.80;;
80247;SDS011;69560;52.206;21.018;2023-06-10T04:40:42;12.60;;;5.50;;
80247;SDS011;69560;52.206;21.018;2023-06-10T04:43:10;10.10;;;5.30;;
80247;SDS011;69560;52.206;21.018;2023-06-10T04:45:37;9.30;;;4.90;;
80247;SDS011;69560;52.206;21.018;2023-06-10T04:48:04;9.60;;;5.30;;
80247;SDS011;69560;52.206;21.018;2023-06-10T04:50:31;6.60;;;4.70;;
80247;SDS011;69560;52.206;21.018;2023-06-10T04:52:59;7.60;;;5.40;;
80247;SDS011;69560;52.206;21.018;2023-06-10T04:55:26;5.70;;;4.60;;
80247;SDS011;69560;52.206;21.018;2023-06-10T04:57:53;6.70;;;4.90;;
80247;SDS011;69560;52.206;21.018;2023-06-10T05:00:19;8.20;;;5.00;;
80247;SDS011;69560;52.206;21.018;2023-06-10T05:02:47;11.20;;;5.70;;
80247;SDS011;69560;52.206;21.018;2023-06-10T05:05:18;8.30;;;5.20;;
80247;SDS011;69560;52.206;21.018;2023-06-10T05:07:45;13.30;;;5.10;;
80247;SDS011;69560;52.206;21.018;2023-06-10T05:10:12;8.00;;;5.00;;
80247;SDS011;69560;52.206;21.018;2023-06-10T05:12:40;11.50;;;4.90;;
80247;SDS011;69560;52.206;21.018;2023-06-10T05:15:08;8.60;;;5.00;;
80247;SDS011;69560;52.206;21.018;2023-06-10T05:17:35;7.70;;;5.40;;
80247;SDS011;69560;52.206;21.018;2023-06-10T05:20:02;5.60;;;4.80;;
80247;SDS011;69560;52.206;21.018;2023-06-10T05:22:29;7.70;;;5.10;;
80247;SDS011;69560;52.206;21.018;2023-06-10T05:24:55;9.10;;;5.20;;
80247;SDS011;69560;52.206;21.018;2023-06-10T05:27:23;7.10;;;4.70;;
80247;SDS011;69560;52.206;21.018;2023-06-10T05:29:51;9.70;;;5.10;;
80247;SDS011;69560;52.206;21.018;2023-06-10T05:32:18;14.00;;;5.20;;
80247;SDS011;69560;52.206;21.018;2023-06-10T05:34:45;8.90;;;5.10;;
80247;SDS011;69560;52.206;21.018;2023-06-10T05:37:13;11.10;;;5.20;;
80247;SDS011;69560;52.206;21.018;2023-06-10T05:39:41;11.50;;;5.00;;
80247;SDS011;69560;52.206;21.018;2023-06-10T05:42:08;7.50;;;5.10;;
80247;SDS011;69560;52.206;21.018;2023-06-10T05:44:35;7.50;;;4.80;;
80247;SDS011;69560;52.206;21.018;2023-06-10T05:47:02;10.40;;;5.20;;
80247;SDS011;69560;52.206;21.018;2023-06-10T05:49:29;9.10;;;5.10;;
80247;SDS011;69560;52.206;21.018;2023-06-10T05:51:55;9.20;;;5.50;;
80247;SDS011;69560;52.206;21.018;2023-06-10T05:54:27;11.30;;;4.70;;
80247;SDS011;69560;52.206;21.018;2023-06-10T05:57:00;11.10;;;5.00;;
80247;SDS011;69560;52.206;21.018;2023-06-10T05:59:30;9.10;;;5.30;;
80247;SDS011;69560;52.206;21.018;2023-06-10T06:01:56;8.10;;;4.90;;
80247;SDS011;69560;52.206;21.018;2023-06-10T06:04:23;7.30;;;5.60;;
80247;SDS011;69560;52.206;21.018;2023-06-10T06:06:53;7.40;;;5.20;;
80247;SDS011;69560;52.206;21.018;2023-06-10T06:09:22;9.00;;;5.50;;
80247;SDS011;69560;52.206;21.018;2023-06-10T06:11:50;6.30;;;5.00;;
80247;SDS011;69560;52.206;21.018;2023-06-10T06:14:17;12.90;;;5.40;;
80247;SDS011;69560;52.206;21.018;2023-06-10T06:16:46;10.20;;;5.10;;
80247;SDS011;69560;52.206;21.018;2023-06-10T06:19:20;11.80;;;5.00;;
80247;SDS011;69560;52.206;21.018;2023-06-10T06:21:51;8.30;;;5.10;;
80247;SDS011;69560;52.206;21.018;2023-06-10T06:24:22;6.70;;;4.90;;
80247;SDS011;69560;52.206;21.018;2023-06-10T06:26:48;10.90;;;6.20;;
80247;SDS011;69560;52.206;21.018;2023-06-10T06:29:22;8.80;;;6.40;;
80247;SDS011;69560;52.206;21.018;2023-06-10T06:31:49;11.90;;;5.90;;
80247;SDS011;69560;52.206;21.018;2023-06-10T06:34:16;10.90;;;5.70;;
80247;SDS011;69560;52.206;21.018;2023-06-10T06:36:48;9.30;;;5.50;;
80247;SDS011;69560;52.206;21.018;2023-06-10T06:39:15;7.40;;;5.40;;
80247;SDS011;69560;52.206;21.018;2023-06-10T06:41:43;7.70;;;5.80;;
80247;SDS011;69560;52.206;21.018;2023-06-10T06:44:10;7.70;;;5.90;;
80247;SDS011;69560;52.206;21.018;2023-06-10T06:46:36;11.60;;;5.60;;
80247;SDS011;69560;52.206;21.018;2023-06-10T06:49:12;8.50;;;5.10;;
80247;SDS011;69560;52.206;21.018;2023-06-10T06:51:39;12.30;;;5.20;;
80247;SDS011;69560;52.206;21.018;2023-06-10T06:54:06;11.60;;;6.00;;
80247;SDS011;69560;52.206;21.018;2023-06-10T06:56:36;8.80;;;5.70;;
80247;SDS011;69560;52.206;21.018;2023-06-10T06:59:02;9.50;;;6.00;;
80247;SDS011;69560;52.206;21.018;2023-06-10T07:01:32;11.50;;;5.80;;
80247;SDS011;69560;52.206;21.018;2023-06-10T07:04:00;10.00;;;6.40;;
80247;SDS011;69560;52.206;21.018;2023-06-10T07:06:27;12.00;;;5.80;;
80247;SDS011;69560;52.206;21.018;2023-06-10T07:08:54;8.10;;;5.30;;
80247;SDS011;69560;52.206;21.018;2023-06-10T07:11:30;10.00;;;5.50;;
80247;SDS011;69560;52.206;21.018;2023-06-10T07:13:57;8.20;;;5.80;;
80247;SDS011;69560;52.206;21.018;2023-06-10T07:16:26;9.70;;;5.80;;
80247;SDS011;69560;52.206;21.018;2023-06-10T07:18:53;10.60;;;5.80;;
80247;SDS011;69560;52.206;21.018;2023-06-10T07:21:27;7.60;;;5.40;;
80247;SDS011;69560;52.206;21.018;2023-06-10T07:23:56;6.90;;;5.80;;
80247;SDS011;69560;52.206;21.018;2023-06-10T07:26:33;10.00;;;5.80;;
80247;SDS011;69560;52.206;21.018;2023-06-10T07:29:00;12.50;;;6.00;;
80247;SDS011;69560;52.206;21.018;2023-06-10T07:31:27;10.00;;;6.10;;
80247;SDS011;69560;52.206;21.018;2023-06-10T07:33:53;13.70;;;5.80;;
80247;SDS011;69560;52.206;21.018;2023-06-10T07:36:20;8.90;;;5.40;;
80247;SDS011;69560;52.206;21.018;2023-06-10T07:38:47;7.00;;;5.80;;
80247;SDS011;69560;52.206;21.018;2023-06-10T07:41:15;9.60;;;5.60;;
80247;SDS011;69560;52.206;21.018;2023-06-10T07:43:47;8.90;;;5.70;;
80247;SDS011;69560;52.206;21.018;2023-06-10T07:48:43;11.40;;;5.80;;
80247;SDS011;69560;52.206;21.018;2023-06-10T07:51:10;7.30;;;5.60;;
80247;SDS011;69560;52.206;21.018;2023-06-10T07:53:37;15.70;;;6.00;;
80247;SDS011;69560;52.206;21.018;2023-06-10T07:56:09;11.90;;;6.00;;
80247;SDS011;69560;52.206;21.018;2023-06-10T07:58:36;14.50;;;5.40;;
80247;SDS011;69560;52.206;21.018;2023-06-10T08:01:05;23.90;;;13.30;;
80247;SDS011;69560;52.206;21.018;2023-06-10T08:03:35;14.50;;;11.80;;
80247;SDS011;69560;52.206;21.018;2023-06-10T08:06:02;13.10;;;10.40;;
80247;SDS011;69560;52.206;21.018;2023-06-10T08:08:31;10.90;;;6.10;;
80247;SDS011;69560;52.206;21.018;2023-06-10T08:11:10;8.50;;;5.50;;
80247;SDS011;69560;52.206;21.018;2023-06-10T08:14:02;10.20;;;5.50;;
80247;SDS011;69560;52.206;21.018;2023-06-10T08:16:55;8.50;;;5.50;;
80247;SDS011;69560;52.206;21.018;2023-06-10T08:19:58;9.90;;;5.50;;
80247;SDS011;69560;52.206;21.018;2023-06-10T08:22:26;10.80;;;5.00;;
80247;SDS011;69560;52.206;21.018;2023-06-10T08:25:05;11.80;;;5.70;;
80247;SDS011;69560;52.206;21.018;2023-06-10T08:27:45;8.30;;;5.50;;
80247;SDS011;69560;52.206;21.018;2023-06-10T08:30:15;8.20;;;5.40;;
80247;SDS011;69560;52.206;21.018;2023-06-10T08:32:48;8.40;;;5.30;;
80247;SDS011;69560;52.206;21.018;2023-06-10T08:35:23;10.00;;;5.40;;
80247;SDS011;69560;52.206;21.018;2023-06-10T08:37:49;9.80;;;5.40;;
80247;SDS011;69560;52.206;21.018;2023-06-10T08:40:21;9.20;;;6.30;;
80247;SDS011;69560;52.206;21.018;2023-06-10T08:42:49;7.00;;;6.20;;
80247;SDS011;69560;52.206;21.018;2023-06-10T08:45:31;8.00;;;5.80;;
80247;SDS011;69560;52.206;21.018;2023-06-10T08:48:04;9.00;;;6.90;;
80247;SDS011;69560;52.206;21.018;2023-06-10T08:50:38;10.20;;;5.50;;
80247;SDS011;69560;52.206;21.018;2023-06-10T08:53:06;6.80;;;4.60;;
80247;SDS011;69560;52.206;21.018;2023-06-10T08:55:37;7.10;;;4.80;;
80247;SDS011;69560;52.206;21.018;2023-06-10T08:58:05;9.10;;;4.80;;
80247;SDS011;69560;52.206;21.018;2023-06-10T09:00:33;7.90;;;4.90;;
80247;SDS011;69560;52.206;21.018;2023-06-10T09:05:34;8.50;;;4.90;;
80247;SDS011;69560;52.206;21.018;2023-06-10T09:08:05;7.10;;;4.80;;
80247;SDS011;69560;52.206;21.018;2023-06-10T09:10:35;7.40;;;4.60;;
80247;SDS011;69560;52.206;21.018;2023-06-10T09:13:02;8.20;;;4.70;;
80247;SDS011;69560;52.206;21.018;2023-06-10T09:15:29;8.60;;;4.50;;
80247;SDS011;69560;52.206;21.018;2023-06-10T09:17:59;9.50;;;4.70;;
80247;SDS011;69560;52.206;21.018;2023-06-10T09:20:26;5.30;;;4.80;;
80247;SDS011;69560;52.206;21.018;2023-06-10T09:22:53;11.40;;;5.40;;
80247;SDS011;69560;52.206;21.018;2023-06-10T09:25:20;5.70;;;5.00;;
80247;SDS011;69560;52.206;21.018;2023-06-10T09:28:15;8.00;;;5.40;;
80247;SDS011;69560;52.206;21.018;2023-06-10T09:30:47;10.00;;;5.50;;
80247;SDS011;69560;52.206;21.018;2023-06-10T09:33:17;5.90;;;5.00;;
80247;SDS011;69560;52.206;21.018;2023-06-10T09:36:04;8.90;;;5.20;;
80247;SDS011;69560;52.206;21.018;2023-06-10T09:38:32;8.70;;;5.10;;
80247;SDS011;69560;52.206;21.018;2023-06-10T09:41:00;6.50;;;4.80;;
80247;SDS011;69560;52.206;21.018;2023-06-10T09:43:39;7.80;;;5.60;;
80247;SDS011;69560;52.206;21.018;2023-06-10T09:46:53;10.10;;;4.90;;
80247;SDS011;69560;52.206;21.018;2023-06-10T09:49:00;6.80;;;4.90;;
80247;SDS011;69560;52.206;21.018;2023-06-10T09:51:30;9.10;;;4.50;;
80247;SDS011;69560;52.206;21.018;2023-06-10T09:53:56;5.60;;;4.00;;
80247;SDS011;69560;52.206;21.018;2023-06-10T09:56:37;7.70;;;4.20;;
80247;SDS011;69560;52.206;21.018;2023-06-10T09:59:11;8.60;;;4.30;;
80247;SDS011;69560;52.206;21.018;2023-06-10T10:01:38;6.90;;;4.50;;
80247;SDS011;69560;52.206;21.018;2023-06-10T10:04:08;7.80;;;4.40;;
80247;SDS011;69560;52.206;21.018;2023-06-10T10:06:37;16.00;;;10.40;;
80247;SDS011;69560;52.206;21.018;2023-06-10T10:09:14;7.20;;;5.70;;
80247;SDS011;69560;52.206;21.018;2023-06-10T10:11:47;7.10;;;4.30;;
80247;SDS011;69560;52.206;21.018;2023-06-10T10:14:27;5.60;;;4.00;;
80247;SDS011;69560;52.206;21.018;2023-06-10T10:17:13;4.70;;;4.10;;
80247;SDS011;69560;52.206;21.018;2023-06-10T10:22:38;7.20;;;4.00;;
80247;SDS011;69560;52.206;21.018;2023-06-10T10:25:13;7.60;;;4.60;;
80247;SDS011;69560;52.206;21.018;2023-06-10T10:28:12;6.00;;;4.10;;
80247;SDS011;69560;52.206;21.018;2023-06-10T10:31:07;7.00;;;4.10;;
80247;SDS011;69560;52.206;21.018;2023-06-10T10:33:59;7.80;;;4.20;;
80247;SDS011;69560;52.206;21.018;2023-06-10T10:36:32;9.00;;;4.40;;
80247;SDS011;69560;52.206;21.018;2023-06-10T10:39:12;7.90;;;4.30;;
80247;SDS011;69560;52.206;21.018;2023-06-10T10:41:42;5.90;;;4.00;;
80247;SDS011;69560;52.206;21.018;2023-06-10T10:44:40;10.20;;;4.30;;
80247;SDS011;69560;52.206;21.018;2023-06-10T10:47:16;4.80;;;3.60;;
80247;SDS011;69560;52.206;21.018;2023-06-10T10:49:49;5.00;;;4.00;;
80247;SDS011;69560;52.206;21.018;2023-06-10T10:52:28;5.80;;;4.10;;
80247;SDS011;69560;52.206;21.018;2023-06-10T10:55:35;8.20;;;4.40;;
80247;SDS011;69560;52.206;21.018;2023-06-10T10:58:08;5.90;;;3.80;;
80247;SDS011;69560;52.206;21.018;2023-06-10T11:00:42;3.70;;;3.40;;
80247;SDS011;69560;52.206;21.018;2023-06-10T11:03:15;6.90;;;3.90;;
80247;SDS011;69560;52.206;21.018;2023-06-10T11:06:05;9.30;;;3.80;;
80247;SDS011;69560;52.206;21.018;2023-06-10T11:11:28;6.30;;;4.20;;
80247;SDS011;69560;52.206;21.018;2023-06-10T11:16:58;8.70;;;3.80;;
80247;SDS011;69560;52.206;21.018;2023-06-10T11:19:32;4.60;;;3.80;;
80247;SDS011;69560;52.206;21.018;2023-06-10T11:22:05;5.40;;;3.80;;
80247;SDS011;69560;52.206;21.018;2023-06-10T11:27:14;7.40;;;4.20;;
80247;SDS011;69560;52.206;21.018;2023-06-10T11:30:00;6.00;;;3.80;;
80247;SDS011;69560;52.206;21.018;2023-06-10T11:32:45;6.20;;;3.80;;
80247;SDS011;69560;52.206;21.018;2023-06-10T11:35:41;4.40;;;3.40;;
80247;SDS011;69560;52.206;21.018;2023-06-10T11:38:11;5.50;;;3.70;;
80247;SDS011;69560;52.206;21.018;2023-06-10T11:40:53;4.60;;;3.90;;
80247;SDS011;69560;52.206;21.018;2023-06-10T11:43:51;5.00;;;4.00;;
80247;SDS011;69560;52.206;21.018;2023-06-10T11:46:24;7.10;;;4.00;;
80247;SDS011;69560;52.206;21.018;2023-06-10T11:49:10;10.20;;;4.00;;
80247;SDS011;69560;52.206;21.018;2023-06-10T11:51:52;7.30;;;4.00;;
80247;SDS011;69560;52.206;21.018;2023-06-10T11:54:19;9.30;;;4.30;;
80247;SDS011;69560;52.206;21.018;2023-06-10T11:56:48;5.50;;;4.70;;
80247;SDS011;69560;52.206;21.018;2023-06-10T12:02:14;4.60;;;4.10;;
80247;SDS011;69560;52.206;21.018;2023-06-10T12:04:42;5.80;;;5.00;;
80247;SDS011;69560;52.206;21.018;2023-06-10T12:07:18;6.50;;;4.30;;
80247;SDS011;69560;52.206;21.018;2023-06-10T12:09:59;4.70;;;4.30;;
80247;SDS011;69560;52.206;21.018;2023-06-10T12:12:34;7.00;;;3.80;;
80247;SDS011;69560;52.206;21.018;2023-06-10T12:15:04;6.90;;;4.30;;
80247;SDS011;69560;52.206;21.018;2023-06-10T12:17:37;6.80;;;4.60;;
80247;SDS011;69560;52.206;21.018;2023-06-10T12:20:07;5.20;;;4.30;;
80247;SDS011;69560;52.206;21.018;2023-06-10T12:23:09;7.90;;;5.00;;
80247;SDS011;69560;52.206;21.018;2023-06-10T12:25:39;5.80;;;4.60;;
80247;SDS011;69560;52.206;21.018;2023-06-10T12:31:57;5.30;;;4.40;;
80247;SDS011;69560;52.206;21.018;2023-06-10T12:34:30;9.80;;;5.20;;
80247;SDS011;69560;52.206;21.018;2023-06-10T12:37:10;7.40;;;4.70;;
80247;SDS011;69560;52.206;21.018;2023-06-10T12:39:50;9.00;;;4.70;;
80247;SDS011;69560;52.206;21.018;2023-06-10T12:42:34;10.00;;;4.80;;
80247;SDS011;69560;52.206;21.018;2023-06-10T12:45:07;5.60;;;5.10;;
80247;SDS011;69560;52.206;21.018;2023-06-10T12:47:39;6.30;;;5.00;;
80247;SDS011;69560;52.206;21.018;2023-06-10T12:50:23;8.50;;;4.60;;
80247;SDS011;69560;52.206;21.018;2023-06-10T12:52:57;9.80;;;4.60;;
80247;SDS011;69560;52.206;21.018;2023-06-10T12:55:32;8.00;;;5.20;;
80247;SDS011;69560;52.206;21.018;2023-06-10T13:01:06;6.00;;;5.40;;
80247;SDS011;69560;52.206;21.018;2023-06-10T13:03:39;7.20;;;5.30;;
80247;SDS011;69560;52.206;21.018;2023-06-10T13:06:15;8.50;;;5.40;;
80247;SDS011;69560;52.206;21.018;2023-06-10T13:09:09;5.80;;;5.20;;
80247;SDS011;69560;52.206;21.018;2023-06-10T13:11:41;7.80;;;4.90;;
80247;SDS011;69560;52.206;21.018;2023-06-10T13:14:16;8.80;;;4.60;;
80247;SDS011;69560;52.206;21.018;2023-06-10T13:16:57;5.50;;;4.70;;
80247;SDS011;69560;52.206;21.018;2023-06-10T13:19:54;10.60;;;5.40;;
80247;SDS011;69560;52.206;21.018;2023-06-10T13:22:35;5.30;;;4.70;;
80247;SDS011;69560;52.206;21.018;2023-06-10T13:25:07;6.40;;;4.70;;
80247;SDS011;69560;52.206;21.018;2023-06-10T13:30:09;7.80;;;5.30;;
80247;SDS011;69560;52.206;21.018;2023-06-10T13:32:45;6.40;;;5.60;;
80247;SDS011;69560;52.206;21.018;2023-06-10T13:35:15;8.20;;;5.00;;
80247;SDS011;69560;52.206;21.018;2023-06-10T13:40:44;6.20;;;5.00;;
80247;SDS011;69560;52.206;21.018;2023-06-10T13:43:16;9.80;;;5.70;;
80247;SDS011;69560;52.206;21.018;2023-06-10T13:45:55;7.20;;;5.80;;
80247;SDS011;69560;52.206;21.018;2023-06-10T13:48:27;8.10;;;5.10;;
80247;SDS011;69560;52.206;21.018;2023-06-10T13:51:03;8.20;;;6.20;;
80247;SDS011;69560;52.206;21.018;2023-06-10T13:53:38;7.50;;;5.40;;
80247;SDS011;69560;52.206;21.018;2023-06-10T13:56:22;9.60;;;6.30;;
80247;SDS011;69560;52.206;21.018;2023-06-10T13:59:03;8.70;;;5.90;;
80247;SDS011;69560;52.206;21.018;2023-06-10T14:01:38;9.70;;;6.70;;
80247;SDS011;69560;52.206;21.018;2023-06-10T14:04:08;12.20;;;6.00;;
80247;SDS011;69560;52.206;21.018;2023-06-10T14:06:40;9.70;;;5.40;;
80247;SDS011;69560;52.206;21.018;2023-06-10T14:09:20;11.30;;;5.20;;
80247;SDS011;69560;52.206;21.018;2023-06-10T14:11:49;7.80;;;5.60;;
80247;SDS011;69560;52.206;21.018;2023-06-10T14:14:27;8.60;;;5.90;;
80247;SDS011;69560;52.206;21.018;2023-06-10T14:17:00;10.10;;;5.60;;
80247;SDS011;69560;52.206;21.018;2023-06-10T14:19:29;7.00;;;6.00;;
80247;SDS011;69560;52.206;21.018;2023-06-10T14:22:09;7.70;;;5.90;;
80247;SDS011;69560;52.206;21.018;2023-06-10T14:24:39;7.20;;;5.90;;
80247;SDS011;69560;52.206;21.018;2023-06-10T14:27:06;6.10;;;5.40;;
80247;SDS011;69560;52.206;21.018;2023-06-10T14:29:38;9.00;;;6.20;;
80247;SDS011;69560;52.206;21.018;2023-06-10T14:32:14;6.80;;;5.90;;
80247;SDS011;69560;52.206;21.018;2023-06-10T14:34:41;6.40;;;5.70;;
80247;SDS011;69560;52.206;21.018;2023-06-10T14:37:10;6.30;;;5.70;;
80247;SDS011;69560;52.206;21.018;2023-06-10T14:39:39;6.20;;;5.30;;
80247;SDS011;69560;52.206;21.018;2023-06-10T14:42:12;7.10;;;5.90;;
80247;SDS011;69560;52.206;21.018;2023-06-10T14:47:43;8.70;;;6.00;;
80247;SDS011;69560;52.206;21.018;2023-06-10T14:53:11;8.80;;;6.40;;
80247;SDS011;69560;52.206;21.018;2023-06-10T14:55:41;7.30;;;6.20;;
80247;SDS011;69560;52.206;21.018;2023-06-10T14:58:16;9.80;;;5.50;;
80247;SDS011;69560;52.206;21.018;2023-06-10T15:00:48;6.80;;;5.70;;
80247;SDS011;69560;52.206;21.018;2023-06-10T15:03:15;7.10;;;5.50;;
80247;SDS011;69560;52.206;21.018;2023-06-10T15:05:42;6.60;;;5.70;;
80247;SDS011;69560;52.206;21.018;2023-06-10T15:08:09;6.00;;;5.20;;
80247;SDS011;69560;52.206;21.018;2023-06-10T15:10:47;6.20;;;5.40;;
80247;SDS011;69560;52.206;21.018;2023-06-10T15:13:14;7.30;;;5.60;;
80247;SDS011;69560;52.206;21.018;2023-06-10T15:15:41;9.70;;;5.90;;
80247;SDS011;69560;52.206;21.018;2023-06-10T15:18:11;9.90;;;5.70;;
80247;SDS011;69560;52.206;21.018;2023-06-10T15:20:38;8.00;;;5.20;;
80247;SDS011;69560;52.206;21.018;2023-06-10T15:23:10;9.00;;;5.90;;
80247;SDS011;69560;52.206;21.018;2023-06-10T15:25:39;9.20;;;5.70;;
80247;SDS011;69560;52.206;21.018;2023-06-10T15:28:13;7.20;;;5.90;;
80247;SDS011;69560;52.206;21.018;2023-06-10T15:30:40;7.40;;;5.90;;
80247;SDS011;69560;52.206;21.018;2023-06-10T15:33:12;6.10;;;5.20;;
80247;SDS011;69560;52.206;21.018;2023-06-10T15:35:42;6.20;;;5.60;;
80247;SDS011;69560;52.206;21.018;2023-06-10T15:38:08;10.10;;;7.60;;
80247;SDS011;69560;52.206;21.018;2023-06-10T15:43:09;9.00;;;6.20;;